KDNN/DNN METAR and TAF weather

Enter ICAO airport designator
Station Type Date Time Source
KDNN METAR 2022/09/26 09:35 UTC NOAA

KDNN 260935Z AUTO 00000KT 9SM CLR 15/14 A2993 RMK AO2 T01510145


Station Type Date Time Source
KDNN Decoded METAR 2022/09/26 09:35 UTC NOAA

Dalton, Dalton Municipal Airport, GA, United States (KDNN) 34-43-18N 084-52-09W
Sep 26, 2022 - 05:35 AM EDT / 2022.09.26 0935 UTC
Wind: Calm:0
Visibility: 9 mile(s):0
Sky conditions: clear
Temperature: 59.2 F (15.1 C)
Dew Point: 58.1 F (14.5 C)
Relative Humidity: 96%
Pressure (altimeter): 29.93 in. Hg (1013 hPa)
ob: KDNN 260935Z AUTO 00000KT 9SM CLR 15/14 A2993 RMK AO2 T01510145
cycle: 9

Station Type Date Time Source
KDNN TAF UTC NOAA

Error!

Example: see airport list